RJBB(METAR)
09/16 02:30
METAR RJBB 151730Z AUTO 06011KT 9999 NSC 25/21 Q1004 NOSIG RMK
A2967=
戻る
トップページへ戻る
IMOC Co,.Ltd.